Time;durP1;ratioP1;P1;durP2;ratioP2;P2;SDS_P1;SDS_P2;PMS_P1;PMS_P2;Temp;Humidity;BMP_temperature;BMP_pressure;BME280_temperature;BME280_humidity;BME280_pressure;Samples;Min_cycle;Max_cycle;Signal;HPM_P1;HPM_P2
2023/09/16 00:00:32;;;;;;;24.70;13.53;;;;;;;8.80;100.00;102623.59;5055163;28;20078;-69
2023/09/16 00:02:59;;;;;;;25.73;15.00;;;;;;;8.66;100.00;102618.38;5057237;28;20071;-69
2023/09/16 00:05:24;;;;;;;20.77;13.43;;;;;;;8.69;100.00;102626.16;5056607;28;20029;-68
2023/09/16 00:07:50;;;;;;;24.83;14.10;;;;;;;8.66;100.00;102619.22;5057656;28;20094;-69
2023/09/16 00:10:15;;;;;;;21.47;14.30;;;;;;;8.64;100.00;102610.50;5057817;28;20025;-69
2023/09/16 00:12:41;;;;;;;21.60;15.27;;;;;;;8.74;100.00;102626.69;5055162;28;20481;-68
2023/09/16 00:15:06;;;;;;;22.17;15.37;;;;;;;8.53;100.00;102590.97;5054755;28;20027;-67
2023/09/16 00:17:33;;;;;;;20.03;13.60;;;;;;;8.42;100.00;102572.28;5054921;28;20123;-70
2023/09/16 00:19:58;;;;;;;26.30;16.63;;;;;;;8.43;100.00;102579.28;5055114;28;20028;-66
2023/09/16 00:22:24;;;;;;;26.73;15.60;;;;;;;8.60;100.00;102603.72;5055142;28;20039;-68
2023/09/16 00:24:50;;;;;;;21.57;14.10;;;;;;;8.78;100.00;102630.84;5054698;28;20033;-69
2023/09/16 00:27:15;;;;;;;20.93;13.87;;;;;;;8.80;100.00;102628.91;5054380;28;20037;-68
2023/09/16 00:29:41;;;;;;;19.03;14.47;;;;;;;8.73;100.00;102614.38;5053499;28;20029;-68
2023/09/16 00:32:07;;;;;;;24.37;14.47;;;;;;;8.68;100.00;102605.88;5054509;28;20212;-68
2023/09/16 00:34:32;;;;;;;21.50;14.20;;;;;;;8.72;100.00;102607.34;5054400;28;20035;-69
2023/09/16 00:36:58;;;;;;;23.70;15.10;;;;;;;8.86;100.00;102630.28;5054342;28;20021;-69
2023/09/16 00:39:24;;;;;;;27.47;14.43;;;;;;;8.89;100.00;102636.25;5054342;28;20025;-68
2023/09/16 00:41:50;;;;;;;19.17;13.73;;;;;;;8.87;100.00;102622.22;5053969;28;20116;-68
2023/09/16 00:44:16;;;;;;;25.53;14.57;;;;;;;8.95;100.00;102629.66;5054076;28;20097;-68
2023/09/16 00:46:41;;;;;;;17.93;13.70;;;;;;;9.07;100.00;102638.59;5053935;28;20544;-68
2023/09/16 00:49:07;;;;;;;24.20;13.73;;;;;;;9.09;100.00;102642.00;5053951;28;20037;-69
2023/09/16 00:51:33;;;;;;;17.77;13.30;;;;;;;8.93;100.00;102605.00;5052720;28;20024;-68
2023/09/16 00:54:00;;;;;;;21.33;15.03;;;;;;;8.99;100.00;102610.75;5037257;28;20472;-69
2023/09/16 00:56:27;;;;;;;19.97;13.27;;;;;;;8.90;100.00;102587.47;5054770;28;20017;-69
2023/09/16 00:58:55;;;;;;;21.10;13.33;;;;;;;9.27;100.00;102657.50;5055305;28;20472;-68
2023/09/16 01:01:23;;;;;;;21.65;13.82;;;;;;;9.27;100.00;102661.97;5054026;28;20029;-68
2023/09/16 01:03:49;;;;;;;17.63;12.63;;;;;;;9.27;100.00;102660.16;5053825;28;20533;-68
2023/09/16 01:06:16;;;;;;;23.43;12.90;;;;;;;9.20;100.00;102644.72;5053573;28;20418;-68
2023/09/16 01:08:44;;;;;;;16.47;13.27;;;;;;;8.95;100.00;102601.25;5052438;28;20036;-69
2023/09/16 01:11:10;;;;;;;19.20;12.90;;;;;;;9.22;100.00;102648.13;5053482;28;20036;-68
2023/09/16 01:13:37;;;;;;;18.53;12.00;;;;;;;9.23;100.00;102655.16;5053240;28;20067;-69
2023/09/16 01:16:15;;;;;;;14.67;12.17;;;;;;;9.27;100.00;102651.34;5054121;28;20020;-67
2023/09/16 01:18:47;;;;;;;19.63;10.57;;;;;;;9.22;100.00;102659.63;5055476;28;20084;-69
2023/09/16 01:21:14;;;;;;;16.73;10.40;;;;;;;9.06;100.00;102644.88;5054901;28;20380;-67
2023/09/16 01:23:40;;;;;;;14.00;11.20;;;;;;;8.99;100.00;102653.28;5053962;28;20488;-67
2023/09/16 01:26:06;;;;;;;13.47;10.17;;;;;;;8.99;100.00;102669.22;5053979;28;20037;-67
2023/09/16 01:28:32;;;;;;;15.13;11.13;;;;;;;8.88;100.00;102655.78;5052185;28;20457;-70
2023/09/16 01:31:00;;;;;;;15.27;10.70;;;;;;;8.58;100.00;102615.41;5052623;28;20052;-67
2023/09/16 01:33:38;;;;;;;12.27;9.40;;;;;;;8.87;100.00;102659.41;5053061;28;20033;-68
2023/09/16 01:36:09;;;;;;;13.65;9.82;;;;;;;8.74;100.00;102637.31;5052883;28;20054;-68
2023/09/16 01:38:37;;;;;;;16.87;10.17;;;;;;;8.76;100.00;102640.72;5052889;28;20037;-67
2023/09/16 01:41:04;;;;;;;14.13;9.32;;;;;;;8.77;100.00;102647.72;5052941;28;20202;-67
2023/09/16 01:43:31;;;;;;;11.77;8.60;;;;;;;8.72;100.00;102635.72;5053005;28;20033;-66
2023/09/16 01:45:59;;;;;;;11.60;9.07;;;;;;;8.78;100.00;102646.78;5051748;28;20423;-69
2023/09/16 01:48:24;;;;;;;10.67;8.70;;;;;;;8.71;100.00;102626.91;5051490;28;20029;-66
2023/09/16 01:50:50;;;;;;;9.97;8.03;;;;;;;8.70;100.00;102625.19;5052462;28;20129;-67
2023/09/16 01:53:16;;;;;;;12.50;8.10;;;;;;;8.61;100.00;102624.00;5034543;28;20037;-68
2023/09/16 01:55:41;;;;;;;14.97;9.13;;;;;;;8.66;100.00;102629.84;5052539;28;20536;-66
2023/09/16 01:58:08;;;;;;;9.47;6.90;;;;;;;8.80;100.00;102651.97;5052830;28;20025;-65
2023/09/16 02:00:34;;;;;;;9.80;7.43;;;;;;;8.74;100.00;102641.78;5052546;28;20033;-67
2023/09/16 02:03:00;;;;;;;10.17;7.37;;;;;;;8.73;100.00;102640.94;5052512;28;20048;-69
2023/09/16 02:05:26;;;;;;;7.97;6.97;;;;;;;8.72;100.00;102636.56;5052468;28;20025;-68
2023/09/16 02:07:51;;;;;;;9.83;7.90;;;;;;;8.42;100.00;102588.19;5052272;28;20086;-67
2023/09/16 02:10:16;;;;;;;13.40;8.10;;;;;;;8.77;100.00;102652.19;5052487;28;20112;-67
2023/09/16 02:12:42;;;;;;;12.27;7.80;;;;;;;8.72;100.00;102639.22;5052221;28;20028;-67
2023/09/16 02:15:09;;;;;;;10.40;6.83;;;;;;;8.67;100.00;102628.03;5052306;28;20044;-68
2023/09/16 02:17:41;;;;;;;11.13;7.10;;;;;;;8.76;100.00;102645.19;5051123;28;20025;-67
2023/09/16 02:20:10;;;;;;;9.73;6.77;;;;;;;8.67;100.00;102634.22;5051174;28;20031;-68
2023/09/16 02:22:36;;;;;;;9.37;6.13;;;;;;;8.73;100.00;102650.69;5053653;28;20418;-68
2023/09/16 02:25:01;;;;;;;8.93;6.23;;;;;;;8.68;100.00;102654.53;5053021;28;20025;-66
2023/09/16 02:27:27;;;;;;;10.43;6.27;;;;;;;8.58;100.00;102639.28;5051099;28;20029;-67
2023/09/16 02:29:53;;;;;;;10.47;5.87;;;;;;;8.17;100.00;102576.53;5051135;28;20080;-67
2023/09/16 02:32:18;;;;;;;9.23;6.90;;;;;;;8.52;100.00;102647.69;5051980;28;20467;-68
2023/09/16 02:34:44;;;;;;;11.17;7.03;;;;;;;8.45;100.00;102643.75;5051824;28;20079;-67
2023/09/16 02:37:09;;;;;;;14.87;6.77;;;;;;;8.50;100.00;102660.22;5052000;28;20037;-68
2023/09/16 02:39:35;;;;;;;11.00;6.33;;;;;;;8.43;100.00;102646.50;5050936;28;20029;-67
2023/09/16 02:42:00;;;;;;;10.07;6.07;;;;;;;8.45;100.00;102657.03;5052281;28;20116;-68
2023/09/16 02:44:28;;;;;;;11.27;6.50;;;;;;;8.37;100.00;102650.41;5052063;28;20053;-67
2023/09/16 02:46:54;;;;;;;6.03;5.22;;;;;;;8.32;100.00;102644.50;5052831;28;20037;-69
2023/09/16 02:49:19;;;;;;;9.37;6.23;;;;;;;8.36;100.00;102645.19;5052841;28;20025;-68
2023/09/16 02:51:44;;;;;;;10.43;5.90;;;;;;;8.35;100.00;102657.63;5052047;28;20025;-67
2023/09/16 02:54:10;;;;;;;7.47;6.20;;;;;;;8.31;100.00;102650.78;5057595;28;20124;-67
2023/09/16 02:56:35;;;;;;;8.40;6.43;;;;;;;8.07;100.00;102623.19;5058559;28;20024;-69
2023/09/16 02:59:01;;;;;;;15.70;6.80;;;;;;;8.27;100.00;102659.91;5058788;28;20323;-67
2023/09/16 03:01:26;;;;;;;14.47;6.80;;;;;;;8.26;100.00;102660.84;5058304;28;20035;-68
2023/09/16 03:03:52;;;;;;;10.87;6.93;;;;;;;8.12;100.00;102630.88;5058157;28;20082;-68
2023/09/16 03:06:17;;;;;;;11.13;6.47;;;;;;;8.26;100.00;102662.66;5058314;28;20021;-67
2023/09/16 03:08:43;;;;;;;7.50;6.23;;;;;;;8.01;100.00;102618.31;5058461;28;20033;-67
2023/09/16 03:11:08;;;;;;;9.37;6.40;;;;;;;7.62;100.00;102568.72;5058406;28;20059;-67
2023/09/16 03:13:34;;;;;;;8.57;7.00;;;;;;;8.25;100.00;102664.47;5057435;28;20350;-67
2023/09/16 03:16:19;;;;;;;9.13;6.70;;;;;;;8.27;100.00;102667.88;5058236;28;20024;-67
2023/09/16 03:18:46;;;;;;;9.33;6.67;;;;;;;8.15;100.00;102650.09;5058168;28;20472;-68
2023/09/16 03:21:14;;;;;;;9.80;7.07;;;;;;;8.20;100.00;102663.06;5058261;28;20403;-69
2023/09/16 03:23:40;;;;;;;11.17;6.67;;;;;;;8.23;100.00;102670.81;5058201;28;20060;-66
2023/09/16 03:26:06;;;;;;;12.10;7.83;;;;;;;8.24;100.00;102668.06;5058319;28;20114;-68
2023/09/16 03:28:32;;;;;;;10.97;7.00;;;;;;;8.25;100.00;102667.13;5058373;28;20302;-67
2023/09/16 03:30:58;;;;;;;12.13;7.43;;;;;;;8.14;100.00;102642.25;5058164;28;20468;-68
2023/09/16 03:33:24;;;;;;;13.30;7.53;;;;;;;8.26;100.00;102660.84;5058095;28;20090;-67
2023/09/16 03:35:49;;;;;;;11.13;6.87;;;;;;;7.60;100.00;102542.28;5058307;28;20029;-66
2023/09/16 03:38:16;;;;;;;9.20;6.40;;;;;;;8.30;100.00;102653.53;5058138;28;20024;-67
2023/09/16 03:40:42;;;;;;;15.23;7.60;;;;;;;8.33;100.00;102648.91;5058024;28;20040;-69
2023/09/16 03:43:07;;;;;;;9.47;6.57;;;;;;;8.41;100.00;102652.88;5057837;28;20039;-68
2023/09/16 03:45:33;;;;;;;11.93;6.17;;;;;;;8.40;100.00;102651.19;5057898;28;20037;-67
2023/09/16 03:47:58;;;;;;;11.57;6.23;;;;;;;8.56;100.00;102671.28;5058197;28;20494;-68
2023/09/16 03:50:24;;;;;;;11.10;6.57;;;;;;;8.69;100.00;102676.63;5058167;28;20457;-68
2023/09/16 03:52:50;;;;;;;13.07;6.77;;;;;;;8.64;100.00;102646.84;5058149;28;20040;-67
2023/09/16 03:55:15;;;;;;;13.17;6.70;;;;;;;8.88;100.00;102669.09;5058355;28;20456;-69
2023/09/16 03:57:41;;;;;;;9.90;5.77;;;;;;;8.97;100.00;102671.13;5057944;28;20106;-68
2023/09/16 04:00:07;;;;;;;9.87;6.10;;;;;;;9.12;100.00;102669.19;5057810;28;20446;-67
2023/09/16 04:02:33;;;;;;;11.00;7.27;;;;;;;9.28;100.00;102669.00;5058222;28;20025;-66
2023/09/16 04:04:58;;;;;;;9.73;5.83;;;;;;;9.40;100.00;102664.59;5054741;28;20032;-68
2023/09/16 04:07:24;;;;;;;8.87;6.40;;;;;;;9.10;100.00;102601.16;5054949;28;20032;-67
2023/09/16 04:09:49;;;;;;;7.80;5.30;;;;;;;9.57;100.00;102667.78;5054679;28;20064;-67
2023/09/16 04:12:15;;;;;;;12.43;5.73;;;;;;;9.65;100.00;102656.59;5036644;28;20408;-68
2023/09/16 04:14:40;;;;;;;8.33;5.57;;;;;;;9.80;100.00;102659.94;5054405;28;20033;-67
2023/09/16 04:17:06;;;;;;;7.13;5.53;;;;;;;9.90;100.00;102663.66;5053452;28;20039;-68
2023/09/16 04:19:31;;;;;;;7.13;5.07;;;;;;;9.97;100.00;102661.38;5054686;28;20033;-67
2023/09/16 04:21:57;;;;;;;6.87;4.57;;;;;;;10.01;100.00;102668.19;5054449;28;20028;-67
2023/09/16 04:24:22;;;;;;;8.20;6.30;;;;;;;10.09;100.00;102666.63;5054338;28;20086;-68
2023/09/16 04:26:48;;;;;;;6.93;5.80;;;;;;;10.11;100.00;102664.72;5054359;28;20029;-67
2023/09/16 04:29:13;;;;;;;8.17;4.90;;;;;;;10.14;100.00;102653.88;5054291;28;20372;-67
2023/09/16 04:31:42;;;;;;;7.23;5.17;;;;;;;10.18;100.00;102660.66;5054038;28;20511;-67
2023/09/16 04:34:07;;;;;;;13.05;5.57;;;;;;;10.28;100.00;102665.31;5054387;28;20040;-70
2023/09/16 04:36:33;;;;;;;7.27;5.43;;;;;;;9.49;100.00;102518.53;5036278;28;20082;-68
2023/09/16 04:38:58;;;;;;;11.20;5.40;;;;;;;10.36;100.00;102646.94;5054424;28;20062;-66
2023/09/16 04:41:24;;;;;;;7.97;5.40;;;;;;;10.53;100.00;102662.53;5054045;28;20056;-68
2023/09/16 04:43:51;;;;;;;6.93;4.50;;;;;;;10.37;100.00;102638.00;5053948;28;20025;-68
2023/09/16 04:46:19;;;;;;;9.43;5.27;;;;;;;10.63;100.00;102666.19;5052892;28;20043;-68
2023/09/16 04:49:02;;;;;;;6.70;4.90;;;;;;;10.58;100.00;102655.03;5054062;28;20033;-70
2023/09/16 04:51:40;;;;;;;6.10;4.47;;;;;;;10.59;100.00;102658.53;5036229;28;20595;-67
2023/09/16 04:54:07;;;;;;;6.88;4.60;;;;;;;10.57;100.00;102640.00;5052740;28;20045;-68
2023/09/16 04:56:34;;;;;;;8.30;4.43;;;;;;;10.71;100.00;102663.78;5054017;28;20175;-68
2023/09/16 04:59:00;;;;;;;6.77;4.30;;;;;;;10.69;100.00;102655.03;5053693;28;20913;-70
2023/09/16 05:01:26;;;;;;;5.83;3.80;;;;;;;10.84;100.00;102669.88;5053532;28;20116;-70
2023/09/16 05:03:52;;;;;;;5.80;3.77;;;;;;;10.79;100.00;102649.88;5053718;28;20052;-68
2023/09/16 05:06:17;;;;;;;4.93;3.73;;;;;;;10.63;100.00;102626.22;5053674;28;20464;-68
2023/09/16 05:08:43;;;;;;;5.07;3.10;;;;;;;11.00;100.00;102674.03;5053625;28;20039;-68
2023/09/16 05:11:08;;;;;;;4.83;3.40;;;;;;;11.03;100.00;102663.13;5053337;28;20029;-70
2023/09/16 05:13:35;;;;;;;4.13;3.40;;;;;;;11.07;100.00;102672.59;5053737;28;20033;-68
2023/09/16 05:16:00;;;;;;;4.13;3.70;;;;;;;11.02;100.00;102672.94;5052922;28;20033;-68
2023/09/16 05:18:26;;;;;;;6.23;2.73;;;;;;;10.98;100.00;102659.94;5053345;28;20032;-68
2023/09/16 05:20:51;;;;;;;3.97;2.80;;;;;;;11.10;100.00;102680.34;5053210;28;20099;-67
2023/09/16 05:23:17;;;;;;;4.47;3.27;;;;;;;11.12;100.00;102673.91;5053125;28;20028;-67
2023/09/16 05:25:46;;;;;;;6.53;3.00;;;;;;;11.14;100.00;102671.97;5053011;28;20037;-68
2023/09/16 05:28:12;;;;;;;3.03;2.47;;;;;;;11.12;100.00;102665.06;5053268;28;20059;-68
2023/09/16 05:30:40;;;;;;;4.57;2.87;;;;;;;11.21;100.00;102672.34;5051904;28;20492;-70
2023/09/16 05:33:05;;;;;;;5.78;2.78;;;;;;;11.23;100.00;102665.06;5053158;28;20391;-67
2023/09/16 05:35:30;;;;;;;3.70;3.07;;;;;;;11.28;100.00;102670.06;5052859;28;20025;-67
2023/09/16 05:37:57;;;;;;;6.83;3.60;;;;;;;11.32;100.00;102669.69;5051325;28;20032;-65
2023/09/16 05:40:23;;;;;;;6.27;3.07;;;;;;;11.23;100.00;102637.53;5052869;28;20029;-67
2023/09/16 05:42:50;;;;;;;5.73;3.60;;;;;;;11.38;100.00;102653.19;5051347;28;20476;-68
2023/09/16 05:45:16;;;;;;;4.67;3.10;;;;;;;11.39;99.03;102641.56;5052702;28;20074;-65
2023/09/16 05:47:42;;;;;;;5.03;3.67;;;;;;;11.53;98.72;102648.44;5052979;28;20112;-72
2023/09/16 05:50:08;;;;;;;4.37;2.97;;;;;;;11.73;98.44;102660.19;5052988;28;20071;-68
2023/09/16 05:52:33;;;;;;;3.50;3.10;;;;;;;11.75;96.52;102639.56;5052741;28;20067;-67
2023/09/16 05:54:59;;;;;;;4.60;2.97;;;;;;;11.84;96.13;102654.84;5052657;28;20033;-71
2023/09/16 05:57:24;;;;;;;3.00;2.67;;;;;;;11.85;95.20;102651.22;5051650;28;20063;-71
2023/09/16 05:59:50;;;;;;;2.83;2.00;;;;;;;11.88;94.50;102651.00;5052581;28;20029;-68
2023/09/16 06:02:16;;;;;;;3.20;2.90;;;;;;;12.02;93.26;102665.88;5056286;28;20082;-69
2023/09/16 06:04:42;;;;;;;6.40;3.90;;;;;;;12.05;93.92;102662.94;5056979;28;20380;-69
2023/09/16 06:07:07;;;;;;;3.97;3.00;;;;;;;12.19;93.87;102673.34;5056253;28;20086;-69
2023/09/16 06:09:33;;;;;;;6.10;3.00;;;;;;;12.07;92.79;102642.31;5053151;28;20460;-69
2023/09/16 06:11:58;;;;;;;3.23;2.43;;;;;;;12.28;91.68;102674.41;5052654;28;20082;-71
2023/09/16 06:14:24;;;;;;;3.30;2.47;;;;;;;12.30;91.30;102661.78;5052309;28;20476;-70
2023/09/16 06:16:50;;;;;;;4.13;3.07;;;;;;;12.43;89.58;102675.78;5052587;28;20032;-69
2023/09/16 06:19:15;;;;;;;4.07;2.77;;;;;;;12.45;90.17;102670.34;5052739;28;20135;-73
2023/09/16 06:21:41;;;;;;;3.00;2.20;;;;;;;12.49;88.77;102669.97;5052703;28;20353;-69
2023/09/16 06:24:06;;;;;;;4.43;2.80;;;;;;;12.54;88.73;102670.41;5052056;28;20123;-70
2023/09/16 06:26:32;;;;;;;5.27;2.50;;;;;;;12.48;88.18;102654.06;5052458;28;20052;-70
2023/09/16 06:28:58;;;;;;;3.30;2.60;;;;;;;12.57;88.47;102667.47;5051210;28;20036;-71
2023/09/16 06:31:24;;;;;;;5.33;2.53;;;;;;;12.50;87.01;102658.28;5053641;28;20490;-70
2023/09/16 06:33:51;;;;;;;5.53;3.03;;;;;;;12.49;86.94;102651.25;5057493;28;20091;-66
2023/09/16 06:36:18;;;;;;;4.57;2.53;;;;;;;12.68;86.17;102672.75;5056471;28;20020;-68
2023/09/16 06:38:43;;;;;;;5.30;2.40;;;;;;;12.70;86.79;102673.47;5052162;28;20036;-65
2023/09/16 06:41:09;;;;;;;4.03;2.70;;;;;;;12.58;85.69;102677.19;5052067;28;20360;-71
2023/09/16 06:43:34;;;;;;;4.03;2.37;;;;;;;12.39;85.17;102631.59;5050850;28;20330;-69
2023/09/16 06:46:00;;;;;;;2.40;2.20;;;;;;;12.64;85.01;102660.63;5050762;28;20447;-69
2023/09/16 06:48:25;;;;;;;4.97;2.67;;;;;;;12.78;85.66;102666.66;5051916;28;20582;-71
2023/09/16 06:50:51;;;;;;;5.33;2.47;;;;;;;12.70;84.44;102644.06;5050593;28;20024;-66
2023/09/16 06:53:17;;;;;;;4.00;2.53;;;;;;;12.80;84.23;102664.69;5037035;28;20067;-64
2023/09/16 06:55:42;;;;;;;3.20;2.90;;;;;;;12.73;85.69;102642.13;5048927;28;20120;-68
2023/09/16 06:58:08;;;;;;;6.27;3.13;;;;;;;12.64;85.02;102611.66;5046378;28;20417;-67
2023/09/16 07:00:35;;;;;;;5.63;3.20;;;;;;;12.98;84.16;102652.41;5031209;28;20405;-66
2023/09/16 07:03:02;;;;;;;4.30;2.63;;;;;;;13.00;82.26;102655.78;5031842;28;20029;-67
2023/09/16 07:05:31;;;;;;;4.10;2.40;;;;;;;13.16;83.36;102666.88;5031756;28;20067;-68
2023/09/16 07:07:58;;;;;;;;;;;;;;;13.27;82.48;102657.91;5032367;28;20061;-66
2023/09/16 07:10:24;;;;;;;7.90;3.93;;;;;;;13.06;82.65;102612.47;5031915;28;19920;-66
2023/09/16 07:12:49;;;;;;;6.83;2.60;;;;;;;13.48;83.44;102661.41;5031792;28;20029;-67
2023/09/16 07:15:15;;;;;;;7.03;2.57;;;;;;;13.49;82.03;102667.59;5031707;28;20033;-69
2023/09/16 07:17:41;;;;;;;4.83;2.47;;;;;;;13.47;81.64;102656.19;5031939;28;20384;-66
2023/09/16 07:20:06;;;;;;;7.50;2.80;;;;;;;13.42;81.57;102645.88;5030352;28;20029;-68
2023/09/16 07:22:32;;;;;;;8.80;3.27;;;;;;;13.56;82.81;102663.38;5031774;28;20547;-66
2023/09/16 07:24:57;;;;;;;3.63;2.60;;;;;;;13.56;82.34;102647.31;5031264;28;20124;-67
2023/09/16 07:27:23;;;;;;;6.90;3.40;;;;;;;13.56;82.78;102641.97;5031334;28;20065;-67
2023/09/16 07:29:48;;;;;;;3.90;2.83;;;;;;;13.65;82.79;102649.22;5031556;28;20025;-65
2023/09/16 07:32:14;;;;;;;7.27;2.67;;;;;;;13.60;83.45;102633.56;5031658;28;20140;-71
2023/09/16 07:34:39;;;;;;;4.40;2.40;;;;;;;13.69;84.26;102631.88;5047209;28;20460;-67
2023/09/16 07:37:05;;;;;;;3.83;2.80;;;;;;;13.78;84.46;102628.38;5051403;28;20376;-66
2023/09/16 07:39:30;;;;;;;8.40;4.23;;;;;;;13.81;84.76;102614.69;5053499;28;20468;-67
2023/09/16 07:41:56;;;;;;;4.57;2.70;;;;;;;14.17;83.88;102633.78;5055243;28;20033;-66
2023/09/16 07:44:22;;;;;;;3.17;2.53;;;;;;;14.35;84.21;102633.91;5053029;28;20029;-66
2023/09/16 07:46:48;;;;;;;7.33;2.97;;;;;;;14.43;84.15;102609.94;5052414;28;20035;-65
2023/09/16 07:49:17;;;;;;;6.73;3.03;;;;;;;14.65;82.26;102609.63;5055078;28;20028;-67
2023/09/16 07:51:45;;;;;;;7.90;2.70;;;;;;;14.82;82.75;102624.16;5055123;28;20059;-67
2023/09/16 07:54:13;;;;;;;7.13;3.23;;;;;;;14.84;82.65;102608.75;5054917;28;20450;-68
2023/09/16 07:56:38;;;;;;;3.60;2.47;;;;;;;14.88;82.97;102616.34;5054406;28;20044;-66
2023/09/16 07:59:04;;;;;;;4.97;2.73;;;;;;;14.76;82.67;102600.59;5054622;28;20494;-67
2023/09/16 08:01:30;;;;;;;6.17;2.53;;;;;;;14.80;82.47;102618.09;5053284;28;20032;-66
2023/09/16 08:03:56;;;;;;;4.80;2.67;;;;;;;14.69;83.26;102610.19;5054680;28;20381;-68
2023/09/16 08:06:22;;;;;;;10.83;3.07;;;;;;;14.67;82.90;102602.28;5054786;28;20112;-67
2023/09/16 08:08:49;;;;;;;5.80;2.90;;;;;;;14.45;81.42;102560.56;5055000;28;20123;-67
2023/09/16 08:11:15;;;;;;;5.00;2.97;;;;;;;14.87;81.14;102605.78;5054705;28;20033;-67
2023/09/16 08:13:40;;;;;;;11.63;3.67;;;;;;;14.99;80.15;102599.22;5054940;28;20029;-66
2023/09/16 08:16:06;;;;;;;6.20;3.20;;;;;;;15.06;77.47;102595.00;5054590;28;20468;-67
2023/09/16 08:18:31;;;;;;;6.47;2.40;;;;;;;15.22;76.56;102596.19;5053146;28;20032;-67
2023/09/16 08:20:57;;;;;;;4.57;2.37;;;;;;;15.32;72.88;102611.22;5054454;28;20528;-67
2023/09/16 08:23:22;;;;;;;4.40;2.70;;;;;;;15.37;71.44;102610.81;5053097;28;20029;-65
2023/09/16 08:25:48;;;;;;;2.47;1.87;;;;;;;15.28;71.70;102590.22;5054510;28;20078;-67
2023/09/16 08:28:13;;;;;;;6.33;2.37;;;;;;;15.39;70.52;102604.28;5054179;28;20036;-68
2023/09/16 08:30:40;;;;;;;4.40;2.90;;;;;;;15.45;71.08;102597.47;5052769;28;20081;-66
2023/09/16 08:33:09;;;;;;;5.87;2.07;;;;;;;15.75;69.19;102604.38;5054305;28;20033;-69
2023/09/16 08:35:34;;;;;;;6.70;2.07;;;;;;;15.95;68.57;102595.19;5053435;28;20480;-66
2023/09/16 08:38:02;;;;;;;3.97;1.60;;;;;;;16.26;68.66;102619.00;5054222;28;20037;-67
2023/09/16 08:40:32;;;;;;;3.50;2.20;;;;;;;16.36;67.18;102593.69;5054217;28;20167;-66
2023/09/16 08:43:07;;;;;;;3.50;1.80;;;;;;;16.40;65.90;102616.59;5054073;28;20079;-69
2023/09/16 08:45:35;;;;;;;2.77;1.60;;;;;;;16.35;67.78;102605.47;5036184;28;20028;-70
2023/09/16 08:48:03;;;;;;;1.52;1.40;;;;;;;16.30;67.88;102602.41;5052766;28;20029;-70
2023/09/16 08:50:30;;;;;;;3.28;1.75;;;;;;;16.37;67.37;102589.16;5047142;28;20056;-68
2023/09/16 08:53:02;;;;;;;1.77;1.57;;;;;;;16.43;67.58;102578.63;5053366;28;20089;-73
2023/09/16 08:55:27;;;;;;;4.23;1.40;;;;;;;16.42;66.26;102552.72;5053959;28;20266;-69
2023/09/16 08:58:02;;;;;;;2.40;1.50;;;;;;;16.57;66.60;102579.06;5053093;28;20123;-67
2023/09/16 09:00:27;;;;;;;2.70;1.77;;;;;;;16.57;66.24;102579.06;5052882;28;20060;-69
2023/09/16 09:02:53;;;;;;;3.00;1.60;;;;;;;16.46;66.35;102555.09;5051071;28;20496;-70
2023/09/16 09:05:21;;;;;;;2.90;1.90;;;;;;;16.65;66.59;102581.81;5053309;28;20021;-68
2023/09/16 09:07:47;;;;;;;3.50;2.80;;;;;;;16.68;65.83;102562.69;5053394;28;20021;-67
2023/09/16 09:10:12;;;;;;;4.93;1.70;;;;;;;16.79;65.19;102565.13;5053711;28;20035;-70
2023/09/16 09:12:40;;;;;;;2.57;1.83;;;;;;;16.87;65.02;102546.31;5052571;28;20021;-68
2023/09/16 09:15:13;;;;;;;2.28;1.38;;;;;;;17.18;64.27;102561.94;5053489;28;20052;-68
2023/09/16 09:17:42;;;;;;;2.23;1.60;;;;;;;17.20;62.92;102552.69;5053686;28;20108;-69
2023/09/16 09:20:11;;;;;;;2.23;2.00;;;;;;;17.40;62.87;102576.66;5052434;28;20040;-69
2023/09/16 09:22:39;;;;;;;2.13;1.50;;;;;;;17.31;63.02;102570.38;5052073;28;20036;-67
2023/09/16 09:25:06;;;;;;;1.88;1.27;;;;;;;17.13;62.77;102575.88;5053161;28;20112;-66
2023/09/16 09:27:32;;;;;;;3.33;1.60;;;;;;;16.79;63.12;102526.63;5051817;28;20064;-68
2023/09/16 09:29:57;;;;;;;3.40;2.03;;;;;;;16.97;64.75;102573.09;5052137;28;20480;-68
2023/09/16 09:32:28;;;;;;;2.27;1.57;;;;;;;16.82;66.13;102551.34;5053098;28;20075;-68
2023/09/16 09:34:54;;;;;;;2.13;1.70;;;;;;;17.03;64.52;102572.44;5053331;28;20063;-68
2023/09/16 09:37:20;;;;;;;3.60;1.40;;;;;;;17.03;64.92;102569.75;5053127;28;20025;-68
2023/09/16 09:39:46;;;;;;;18.77;2.50;;;;;;;16.97;65.46;102571.25;5051470;28;20436;-68
2023/09/16 09:42:21;;;;;;;3.53;1.10;;;;;;;16.79;66.61;102557.06;5052930;28;20025;-67
2023/09/16 09:44:46;;;;;;;3.67;1.60;;;;;;;16.65;67.19;102565.66;5051867;28;20361;-68
2023/09/16 09:47:15;;;;;;;4.17;2.53;;;;;;;16.59;67.62;102544.78;5052758;28;20074;-69
2023/09/16 09:49:41;;;;;;;3.47;1.90;;;;;;;16.57;66.83;102544.09;5052956;28;20033;-69
2023/09/16 09:52:08;;;;;;;4.03;1.93;;;;;;;16.57;67.77;102544.09;5052534;28;20021;-69
2023/09/16 09:54:34;;;;;;;2.23;1.87;;;;;;;16.56;66.55;102542.41;5051815;28;20032;-69
2023/09/16 09:57:04;;;;;;;2.17;1.57;;;;;;;16.66;64.32;102540.47;5052684;28;20120;-69
2023/09/16 09:59:29;;;;;;;4.40;1.50;;;;;;;16.92;65.23;102544.00;5052675;28;20140;-67
2023/09/16 10:01:55;;;;;;;2.40;1.93;;;;;;;17.13;64.76;102553.50;5052167;28;20460;-70
2023/09/16 10:04:20;;;;;;;2.93;2.10;;;;;;;17.13;63.82;102537.34;5052081;28;20028;-69
2023/09/16 10:06:46;;;;;;;2.70;1.73;;;;;;;17.16;64.13;102553.19;5052447;28;20021;-68
2023/09/16 10:09:12;;;;;;;5.17;1.60;;;;;;;16.97;64.88;102543.50;5053260;28;20028;-68
2023/09/16 10:11:38;;;;;;;3.13;1.67;;;;;;;16.96;65.24;102548.03;5052749;28;20059;-66
2023/09/16 10:14:04;;;;;;;1.63;1.33;;;;;;;17.04;66.10;102555.28;5051295;28;20029;-68
2023/09/16 10:16:30;;;;;;;1.90;1.40;;;;;;;17.04;65.43;102556.13;5052504;28;20032;-66
2023/09/16 10:18:57;;;;;;;7.70;2.13;;;;;;;16.69;65.46;102508.72;5052308;28;20025;-69
2023/09/16 10:21:23;;;;;;;4.13;1.40;;;;;;;16.94;66.08;102551.91;5052016;28;20028;-66
2023/09/16 10:23:50;;;;;;;3.47;1.90;;;;;;;16.90;67.28;102550.53;5052105;28;20035;-67
2023/09/16 10:26:16;;;;;;;1.97;1.50;;;;;;;16.83;68.26;102536.03;5052796;28;20102;-68
2023/09/16 10:28:49;;;;;;;2.03;1.83;;;;;;;16.93;69.14;102552.91;5054336;28;20474;-68
2023/09/16 10:31:16;;;;;;;1.90;1.60;;;;;;;16.84;68.63;102538.56;5054279;28;20529;-66
2023/09/16 10:33:42;;;;;;;1.93;1.53;;;;;;;16.91;67.97;102539.59;5052673;28;20163;-66
2023/09/16 10:36:09;;;;;;;6.40;1.73;;;;;;;16.86;67.47;102536.56;5052304;28;20071;-68
2023/09/16 10:38:36;;;;;;;3.93;1.63;;;;;;;16.93;66.09;102556.44;5052311;28;20491;-66
2023/09/16 10:41:05;;;;;;;3.50;1.88;;;;;;;16.90;66.22;102543.31;5052436;28;20071;-67
2023/09/16 10:43:31;;;;;;;4.00;1.80;;;;;;;16.85;66.63;102513.34;5052103;28;20039;-68
2023/09/16 10:45:57;;;;;;;2.58;2.00;;;;;;;17.03;67.44;102538.31;5052104;28;20040;-68
2023/09/16 10:48:23;;;;;;;1.90;1.57;;;;;;;17.08;67.23;102537.00;5051911;28;20032;-69
2023/09/16 10:50:53;;;;;;;1.77;1.38;;;;;;;17.09;66.90;102526.06;5051849;28;20029;-67
2023/09/16 10:53:24;;;;;;;6.25;1.95;;;;;;;17.19;66.89;102517.84;5051992;28;20426;-69
2023/09/16 10:56:08;;;;;;;3.70;2.00;;;;;;;17.17;66.57;102522.56;5050929;28;20040;-69
2023/09/16 10:58:41;;;;;;;3.00;1.73;;;;;;;17.12;66.50;102527.59;5051941;28;20692;-69
2023/09/16 11:01:08;;;;;;;3.97;1.77;;;;;;;17.09;67.07;102525.22;5053439;28;20033;-67
2023/09/16 11:03:40;;;;;;;3.67;1.58;;;;;;;17.01;66.84;102493.72;5055250;28;20395;-69
2023/09/16 11:06:07;;;;;;;4.40;2.33;;;;;;;17.15;67.52;102519.19;5051322;28;20037;-71
2023/09/16 11:08:32;;;;;;;4.63;2.33;;;;;;;17.20;66.92;102516.84;5052292;28;20086;-68
2023/09/16 11:10:58;;;;;;;3.53;1.95;;;;;;;17.17;66.70;102515.31;5052442;28;20032;-67
2023/09/16 11:13:29;;;;;;;3.47;1.40;;;;;;;17.21;66.08;102518.53;5052202;28;20553;-68
2023/09/16 11:16:04;;;;;;;3.83;1.50;;;;;;;16.99;66.67;102483.13;5056267;28;20025;-70
2023/09/16 11:18:29;;;;;;;3.72;1.83;;;;;;;17.25;63.92;102514.50;5056020;28;20059;-67